createdAt,value
2019-02-02T00:06:41.554Z,15.50
2019-02-02T00:16:45.176Z,15.47
2019-02-02T00:26:48.773Z,15.10
2019-02-02T00:36:52.367Z,11.23
2019-02-02T00:46:55.943Z,11.87
2019-02-02T00:56:59.526Z,18.23
2019-02-02T01:07:03.291Z,12.43
2019-02-02T01:17:06.879Z,17.93
2019-02-02T01:27:10.442Z,18.70
2019-02-02T01:37:14.042Z,13.37
2019-02-02T01:47:17.638Z,12.60
2019-02-02T01:57:21.242Z,12.00
2019-02-02T02:07:24.821Z,12.50
2019-02-02T02:17:28.407Z,12.60
2019-02-02T02:27:31.996Z,11.00
2019-02-02T02:37:35.571Z,15.23
2019-02-02T02:47:39.135Z,19.67
2019-02-02T02:57:42.743Z,17.10
2019-02-02T03:07:46.916Z,16.63
2019-02-02T03:17:50.499Z,16.70
2019-02-02T03:27:54.067Z,16.77
2019-02-02T03:37:57.630Z,19.93
2019-02-02T03:48:01.186Z,20.60
2019-02-02T03:58:04.813Z,18.33
2019-02-02T04:08:08.406Z,23.97
2019-02-02T04:18:11.996Z,18.87
2019-02-02T04:28:15.598Z,15.30
2019-02-02T04:38:19.178Z,12.20
2019-02-02T04:48:22.784Z,15.33
2019-02-02T04:58:26.339Z,24.47
2019-02-02T05:08:29.913Z,23.20
2019-02-02T05:18:33.498Z,23.67
2019-02-02T05:28:37.123Z,23.50
2019-02-02T05:38:40.723Z,16.13
2019-02-02T05:48:44.320Z,15.50
2019-02-02T05:58:47.882Z,23.47
2019-02-02T06:08:51.466Z,28.03
2019-02-02T06:18:55.055Z,24.33
2019-02-02T06:28:58.647Z,28.90
2019-02-02T06:39:02.405Z,27.87
2019-02-02T06:49:06.049Z,21.03
2019-02-02T06:59:09.630Z,28.17
2019-02-02T07:09:13.219Z,24.00
2019-02-02T07:19:16.818Z,37.37
2019-02-02T07:29:20.634Z,38.00
2019-02-02T07:39:24.205Z,38.67
2019-02-02T07:49:27.815Z,31.27
2019-02-02T07:59:31.383Z,27.43
2019-02-02T08:09:40.075Z,25.10
2019-02-02T08:19:43.666Z,32.00
2019-02-02T08:29:47.264Z,27.23
2019-02-02T08:39:50.825Z,29.47
2019-02-02T08:49:54.419Z,25.83
2019-02-02T08:59:59.811Z,21.80
2019-02-02T09:10:03.408Z,23.80
2019-02-02T09:20:07.339Z,33.23
2019-02-02T09:30:17.217Z,38.63
2019-02-02T09:40:20.807Z,31.60
2019-02-02T09:50:24.803Z,33.77
2019-02-02T10:00:29.910Z,25.83
2019-02-02T10:10:34.561Z,26.63
2019-02-02T10:20:38.162Z,25.87
2019-02-02T10:30:43.331Z,37.67
2019-02-02T10:40:46.899Z,53.77
2019-02-02T10:50:50.481Z,51.17
2019-02-02T11:00:54.049Z,51.20
2019-02-02T11:10:57.766Z,54.50
2019-02-02T11:21:01.542Z,57.83
2019-02-02T11:31:05.162Z,65.77
2019-02-02T11:41:08.722Z,59.20
2019-02-02T11:51:12.300Z,42.87
2019-02-02T12:01:15.864Z,46.07
2019-02-02T12:11:19.425Z,38.27
2019-02-02T12:21:23.031Z,41.03
2019-02-02T12:31:26.630Z,33.57
2019-02-02T12:41:30.238Z,43.03
2019-02-02T12:51:33.860Z,31.23
2019-02-02T13:01:37.434Z,39.90
2019-02-02T13:11:40.994Z,51.10
2019-02-02T13:21:44.617Z,49.30
2019-02-02T13:31:48.185Z,40.73
2019-02-02T13:41:51.749Z,45.03
2019-02-02T13:51:55.462Z,35.63
2019-02-02T14:01:59.026Z,43.17
2019-02-02T14:12:02.596Z,50.53
2019-02-02T14:22:06.178Z,29.70
2019-02-02T14:32:09.746Z,29.83
2019-02-02T14:42:13.353Z,28.73
2019-02-02T14:52:16.932Z,30.23
2019-02-02T15:02:20.539Z,34.60
2019-02-02T15:12:24.941Z,28.47
2019-02-02T15:22:28.538Z,21.50
2019-02-02T15:32:32.120Z,25.40
2019-02-02T15:42:35.725Z,19.83
2019-02-02T15:52:39.325Z,17.93
2019-02-02T16:02:42.906Z,19.20
2019-02-02T16:12:46.517Z,24.03
2019-02-02T16:22:50.177Z,22.10
2019-02-02T16:32:53.786Z,23.70
2019-02-02T16:42:57.367Z,20.00
2019-02-02T16:53:00.954Z,27.93
2019-02-02T17:03:04.534Z,21.60
2019-02-02T17:13:08.155Z,18.80
2019-02-02T17:23:11.722Z,15.17
2019-02-02T17:33:16.110Z,23.17
2019-02-02T17:43:19.995Z,19.70
2019-02-02T17:53:23.594Z,22.23
2019-02-02T18:03:27.212Z,20.33
2019-02-02T18:13:30.883Z,16.43
2019-02-02T18:23:34.458Z,19.07
2019-02-02T18:33:39.055Z,19.40
2019-02-02T18:43:43.714Z,15.80
2019-02-02T18:53:47.302Z,20.37
2019-02-02T19:03:50.910Z,17.30
2019-02-02T19:13:54.491Z,17.90
2019-02-02T19:23:58.082Z,19.93
2019-02-02T19:34:01.690Z,12.20
2019-02-02T19:44:05.497Z,17.20
2019-02-02T19:54:09.062Z,27.70
2019-02-02T20:04:12.676Z,26.40
2019-02-02T20:14:16.319Z,21.43
2019-02-02T20:24:19.897Z,24.27
2019-02-02T20:34:23.502Z,22.97
2019-02-02T20:44:27.095Z,18.63
2019-02-02T20:54:30.655Z,31.90
2019-02-02T21:04:34.247Z,26.30
2019-02-02T21:14:37.859Z,19.37
2019-02-02T21:24:41.619Z,20.13
2019-02-02T21:34:45.457Z,13.83
2019-02-02T21:44:49.062Z,16.53
2019-02-02T21:54:52.714Z,19.20
2019-02-02T22:04:56.282Z,20.50
2019-02-02T22:15:00.192Z,19.13
2019-02-02T22:25:06.264Z,23.50
2019-02-02T22:35:09.847Z,22.13
2019-02-02T22:45:15.381Z,19.60
2019-02-02T22:55:19.253Z,13.93
2019-02-02T23:05:31.475Z,15.90
2019-02-02T23:15:57.280Z,12.00
2019-02-02T23:26:00.863Z,20.10
2019-02-02T23:36:04.443Z,16.87
2019-02-02T23:46:08.015Z,13.20
2019-02-02T23:56:11.597Z,15.00
